createdAt,value
2023-04-17T00:04:59.282Z,99834.88
2023-04-17T00:08:01.960Z,99839.92
2023-04-17T00:11:07.864Z,99835.03
2023-04-17T00:14:13.065Z,99835.81
2023-04-17T00:17:15.034Z,99839.09
2023-04-17T00:20:17.264Z,99839.27
2023-04-17T00:23:19.571Z,99837.33
2023-04-17T00:26:21.646Z,99838.50
2023-04-17T00:29:24.123Z,99837.64
2023-04-17T00:32:26.210Z,99841.63
2023-04-17T00:35:28.261Z,99841.21
2023-04-17T00:38:30.421Z,99841.46
2023-04-17T00:41:32.500Z,99837.92
2023-04-17T00:44:34.563Z,99834.22
2023-04-17T00:47:37.982Z,99837.58
2023-04-17T00:50:40.241Z,99838.27
2023-04-17T00:53:43.429Z,99837.05
2023-04-17T00:56:45.909Z,99834.58
2023-04-17T00:59:48.181Z,99831.21
2023-04-17T01:02:50.378Z,99830.95
2023-04-17T01:05:53.251Z,99828.73
2023-04-17T01:08:55.938Z,99831.86
2023-04-17T01:12:17.648Z,99831.89
2023-04-17T01:15:20.226Z,99826.95
2023-04-17T01:18:22.252Z,99828.33
2023-04-17T01:21:24.160Z,99826.95
2023-04-17T01:24:26.155Z,99826.79
2023-04-17T01:27:28.037Z,99825.09
2023-04-17T01:30:30.162Z,99826.95
2023-04-17T01:33:37.807Z,99829.65
2023-04-17T01:36:39.529Z,99826.92
2023-04-17T01:39:41.382Z,99827.98
2023-04-17T01:42:43.498Z,99829.95
2023-04-17T01:45:45.401Z,99828.66
2023-04-17T01:48:47.181Z,99827.66
2023-04-17T01:51:49.000Z,99829.48
2023-04-17T01:54:50.902Z,99827.64
2023-04-17T01:57:52.769Z,99829.36
2023-04-17T02:05:00.406Z,99835.73
2023-04-17T02:08:02.661Z,99834.08
2023-04-17T02:11:05.249Z,99837.62
2023-04-17T02:14:07.926Z,99833.70
2023-04-17T02:17:09.906Z,99834.05
2023-04-17T02:20:12.306Z,99832.86
2023-04-17T02:23:14.371Z,99833.29
2023-04-17T02:26:16.512Z,99833.98
2023-04-17T02:29:19.396Z,99833.35
2023-04-17T02:32:21.466Z,99826.20
2023-04-17T02:35:27.007Z,99830.78
2023-04-17T02:38:30.010Z,99829.32
2023-04-17T02:41:31.980Z,99832.09
2023-04-17T02:44:34.133Z,99839.13
2023-04-17T02:47:36.844Z,99846.34
2023-04-17T02:50:38.990Z,99846.70
2023-04-17T02:53:44.416Z,99851.72
2023-04-17T02:56:46.640Z,99851.21
2023-04-17T02:59:49.907Z,99849.41
2023-04-17T03:02:52.372Z,99852.20
2023-04-17T03:05:54.684Z,99857.16
2023-04-17T03:08:57.748Z,99858.60
2023-04-17T03:12:00.444Z,99860.39
2023-04-17T03:15:03.528Z,99861.23
2023-04-17T03:18:05.789Z,99863.55
2023-04-17T03:21:09.000Z,99867.45
2023-04-17T03:24:12.912Z,99870.20
2023-04-17T03:27:15.504Z,99875.30
2023-04-17T03:30:17.721Z,99882.20
2023-04-17T03:33:22.493Z,99881.66
2023-04-17T03:36:24.456Z,99882.89
2023-04-17T03:39:27.751Z,99885.39
2023-04-17T03:42:29.624Z,99886.25
2023-04-17T03:45:31.719Z,99889.88
2023-04-17T03:48:33.563Z,99894.27
2023-04-17T03:51:37.792Z,99894.38
2023-04-17T03:54:48.432Z,99898.67
2023-04-17T03:57:51.320Z,99897.73
2023-04-17T04:04:59.525Z,99903.02
2023-04-17T04:08:01.755Z,99901.77
2023-04-17T04:11:08.803Z,99902.78
2023-04-17T04:14:12.332Z,99904.30
2023-04-17T04:17:15.225Z,99906.58
2023-04-17T04:20:17.801Z,99909.16
2023-04-17T04:23:20.600Z,99910.31
2023-04-17T04:26:24.063Z,99910.60
2023-04-17T04:29:28.803Z,99912.88
2023-04-17T04:32:37.325Z,99912.09
2023-04-17T04:35:41.539Z,99914.50
2023-04-17T04:38:43.605Z,99916.34
2023-04-17T04:41:55.629Z,99920.27
2023-04-17T04:45:00.641Z,99921.09
2023-04-17T04:48:04.232Z,99922.58
2023-04-17T04:51:07.067Z,99921.14
2023-04-17T04:54:10.525Z,99922.46
2023-04-17T04:57:20.388Z,99918.10
2023-04-17T05:00:23.288Z,99916.88
2023-04-17T05:03:29.009Z,99914.44
2023-04-17T05:06:31.101Z,99921.23
2023-04-17T05:09:36.232Z,99919.31
2023-04-17T05:12:38.815Z,99923.52
2023-04-17T05:15:42.437Z,99927.33
2023-04-17T05:18:47.361Z,99928.71
2023-04-17T05:21:51.058Z,99933.12
2023-04-17T05:24:54.150Z,99937.05
2023-04-17T05:27:56.426Z,99942.67
2023-04-17T05:30:58.801Z,99948.92
2023-04-17T05:34:06.398Z,99953.30
2023-04-17T05:37:09.598Z,99953.52
2023-04-17T05:40:13.711Z,99956.98
2023-04-17T05:43:16.254Z,99956.84
2023-04-17T05:46:18.152Z,99957.33
2023-04-17T05:49:20.173Z,99953.85
2023-04-17T05:52:22.899Z,99957.84
2023-04-17T05:55:26.532Z,99958.73
2023-04-17T05:58:31.849Z,99960.01
2023-04-17T06:04:44.283Z,99959.17
2023-04-17T06:07:48.297Z,99963.92
2023-04-17T06:10:52.717Z,99965.20
2023-04-17T06:13:58.677Z,99965.48
2023-04-17T06:17:03.879Z,99966.86
2023-04-17T06:20:12.341Z,99966.61
2023-04-17T06:23:15.823Z,99965.74
2023-04-17T06:29:47.250Z,99967.01
2023-04-17T06:32:51.452Z,99968.25
2023-04-17T06:35:56.365Z,99968.80
2023-04-17T06:39:14.826Z,99970.40
2023-04-17T06:42:19.080Z,99969.47
2023-04-17T06:45:29.319Z,99975.66
2023-04-17T06:48:33.111Z,99975.23
2023-04-17T06:51:38.357Z,99976.48
2023-04-17T06:54:43.088Z,99972.77
2023-04-17T06:57:47.619Z,99977.99
2023-04-17T07:00:53.161Z,99984.57
2023-04-17T07:03:57.747Z,99985.55
2023-04-17T07:07:03.134Z,99980.71
2023-04-17T07:10:08.476Z,99978.67
2023-04-17T07:13:14.331Z,99982.17
2023-04-17T07:16:19.016Z,99984.90
2023-04-17T07:19:22.569Z,99984.48
2023-04-17T07:22:27.561Z,99989.55
2023-04-17T07:25:31.840Z,99989.88
2023-04-17T07:28:38.290Z,99985.11
2023-04-17T07:31:41.738Z,99986.77
2023-04-17T07:34:45.189Z,99984.42
2023-04-17T07:37:48.497Z,99991.53
2023-04-17T07:40:52.300Z,99988.81
2023-04-17T07:43:58.434Z,99986.52
2023-04-17T07:47:02.513Z,99987.39
2023-04-17T07:50:07.100Z,99986.21
2023-04-17T07:53:10.814Z,99983.27
2023-04-17T07:56:14.118Z,99980.94
2023-04-17T07:59:17.613Z,99985.09
2023-04-17T08:02:22.811Z,99986.00
2023-04-17T08:05:26.525Z,99982.80
2023-04-17T08:08:30.119Z,99982.31
2023-04-17T08:11:42.654Z,99977.93
2023-04-17T08:14:49.453Z,99978.97
2023-04-17T08:17:52.852Z,99978.12
2023-04-17T08:20:57.152Z,99972.30
2023-04-17T08:24:01.489Z,99972.60
2023-04-17T08:27:06.336Z,99968.77
2023-04-17T08:30:14.330Z,99969.34
2023-04-17T08:33:19.852Z,99967.77
2023-04-17T08:36:23.485Z,99964.34
2023-04-17T08:39:30.605Z,99958.84
2023-04-17T08:42:39.296Z,99962.94
2023-04-17T08:45:55.830Z,99959.52
2023-04-17T08:48:59.615Z,99948.18
2023-04-17T08:52:05.395Z,99951.21
2023-04-17T08:55:14.105Z,99951.83
2023-04-17T08:58:18.127Z,99951.41
2023-04-17T09:01:22.260Z,99943.06
2023-04-17T09:04:45.257Z,99946.45
2023-04-17T09:08:14.481Z,99944.67
2023-04-17T09:11:18.136Z,99941.43
2023-04-17T09:14:31.026Z,99942.26
2023-04-17T09:17:38.010Z,99940.51
2023-04-17T09:20:50.374Z,99932.19
2023-04-17T09:23:56.463Z,99931.48
2023-04-17T09:27:22.732Z,99930.53
2023-04-17T09:30:27.285Z,99926.91
2023-04-17T09:33:31.150Z,99925.73
2023-04-17T09:36:39.511Z,99925.20
2023-04-17T09:39:57.929Z,99927.98
2023-04-17T09:43:04.068Z,99931.51
2023-04-17T09:46:08.092Z,99933.79
2023-04-17T09:49:36.575Z,99933.11
2023-04-17T09:52:40.179Z,99936.05
2023-04-17T09:55:43.960Z,99937.08
2023-04-17T09:58:47.588Z,99938.02
2023-04-17T10:05:02.598Z,99937.83
2023-04-17T10:08:05.693Z,99939.45
2023-04-17T10:11:08.591Z,99934.98
2023-04-17T10:14:43.650Z,99937.20
2023-04-17T10:17:46.270Z,99940.79
2023-04-17T10:20:49.645Z,99940.46
2023-04-17T10:23:52.873Z,99937.80
2023-04-17T10:26:55.763Z,99936.18
2023-04-17T10:36:41.719Z,99934.61
2023-04-17T10:39:58.616Z,99938.92
2023-04-17T10:43:13.992Z,99941.03
2023-04-17T10:46:16.397Z,99939.45
2023-04-17T10:49:21.285Z,99940.05
2023-04-17T10:52:34.232Z,99940.00
2023-04-17T10:55:50.066Z,99940.45
2023-04-17T10:59:04.495Z,99940.20
2023-04-17T11:02:07.656Z,99948.14
2023-04-17T11:05:11.612Z,99945.57
2023-04-17T11:08:14.395Z,99939.47
2023-04-17T11:11:26.830Z,99935.59
2023-04-17T11:14:42.033Z,99936.77
2023-04-17T11:17:47.739Z,99930.48
2023-04-17T11:20:49.819Z,99932.32
2023-04-17T11:23:54.235Z,99924.61
2023-04-17T11:27:03.102Z,99916.64
2023-04-17T11:30:06.209Z,99913.81
2023-04-17T11:33:13.124Z,99915.95
2023-04-17T11:36:16.117Z,99903.48
2023-04-17T11:39:19.821Z,99894.98
2023-04-17T11:42:26.717Z,99888.95
2023-04-17T11:45:32.150Z,99879.49
2023-04-17T11:48:34.719Z,99875.42
2023-04-17T11:51:37.306Z,99872.09
2023-04-17T11:54:40.892Z,99870.69
2023-04-17T11:57:45.601Z,99868.84
2023-04-17T12:01:05.032Z,99865.81
2023-04-17T12:04:21.113Z,99857.30
2023-04-17T12:07:24.400Z,99851.40
2023-04-17T12:10:43.299Z,99850.45
2023-04-17T12:13:45.671Z,99853.21
2023-04-17T12:16:52.743Z,99851.49
2023-04-17T12:19:55.622Z,99853.48
2023-04-17T12:22:57.778Z,99853.02
2023-04-17T12:26:00.048Z,99852.50
2023-04-17T12:29:02.237Z,99851.37
2023-04-17T12:32:04.963Z,99850.28
2023-04-17T12:35:08.003Z,99848.50
2023-04-17T12:38:10.627Z,99845.42
2023-04-17T12:41:12.648Z,99841.16
2023-04-17T12:44:14.726Z,99841.76
2023-04-17T12:47:17.201Z,99843.66
2023-04-17T12:50:20.392Z,99842.50
2023-04-17T12:53:25.256Z,99838.73
2023-04-17T12:56:27.262Z,99833.80
2023-04-17T12:59:29.272Z,99834.93
2023-04-17T13:02:31.762Z,99834.83
2023-04-17T13:05:34.252Z,99836.02
2023-04-17T13:08:36.252Z,99835.45
2023-04-17T13:11:40.935Z,99836.45
2023-04-17T13:14:45.536Z,99832.98
2023-04-17T13:17:49.053Z,99831.84
2023-04-17T13:20:51.011Z,99837.65
2023-04-17T13:23:55.636Z,99835.80
2023-04-17T13:27:01.385Z,99836.75
2023-04-17T13:30:04.563Z,99841.11
2023-04-17T13:33:07.283Z,99842.32
2023-04-17T13:36:09.236Z,99840.88
2023-04-17T13:39:12.521Z,99839.17
2023-04-17T13:42:16.457Z,99848.62
2023-04-17T13:45:19.011Z,99846.13
2023-04-17T13:48:23.854Z,99848.02
2023-04-17T13:51:28.691Z,99842.65
2023-04-17T13:54:31.098Z,99837.94
2023-04-17T13:57:33.880Z,99840.29
2023-04-17T14:04:42.425Z,99839.01
2023-04-17T14:07:46.198Z,99836.39
2023-04-17T14:10:49.690Z,99833.13
2023-04-17T14:13:53.508Z,99832.05
2023-04-17T14:16:57.321Z,99830.10
2023-04-17T14:20:01.256Z,99829.08
2023-04-17T14:23:06.682Z,99830.63
2023-04-17T14:26:12.582Z,99831.00
2023-04-17T14:29:16.025Z,99831.27
2023-04-17T14:32:22.428Z,99827.52
2023-04-17T14:35:25.935Z,99826.22
2023-04-17T14:38:32.831Z,99823.80
2023-04-17T14:41:37.900Z,99818.48
2023-04-17T14:44:43.592Z,99819.77
2023-04-17T14:47:49.470Z,99814.69
2023-04-17T14:50:53.260Z,99814.04
2023-04-17T14:53:58.287Z,99813.08
2023-04-17T14:57:02.206Z,99812.14
2023-04-17T15:00:10.257Z,99809.21
2023-04-17T15:03:17.628Z,99807.96
2023-04-17T15:06:23.779Z,99802.91
2023-04-17T15:09:31.574Z,99803.77
2023-04-17T15:12:35.075Z,99799.48
2023-04-17T15:15:40.732Z,99796.33
2023-04-17T15:18:44.209Z,99796.27
2023-04-17T15:21:51.203Z,99796.95
2023-04-17T15:24:59.711Z,99797.00
2023-04-17T15:28:03.220Z,99798.30
2023-04-17T15:31:07.228Z,99797.26
2023-04-17T15:34:10.732Z,99797.84
2023-04-17T15:37:14.185Z,99799.25
2023-04-17T15:40:17.537Z,99799.58
2023-04-17T15:43:22.464Z,99803.78
2023-04-17T15:46:25.895Z,99801.66
2023-04-17T15:49:31.013Z,99803.35
2023-04-17T15:52:35.017Z,99809.55
2023-04-17T15:55:41.532Z,99808.86
2023-04-17T15:58:44.884Z,99808.80
2023-04-17T16:01:49.002Z,99812.03
2023-04-17T16:04:54.139Z,99809.59
2023-04-17T16:07:57.372Z,99810.45
2023-04-17T16:11:01.110Z,99811.08
2023-04-17T16:14:05.421Z,99810.81
2023-04-17T16:17:09.477Z,99814.21
2023-04-17T16:20:15.841Z,99816.40
2023-04-17T16:23:19.465Z,99814.85
2023-04-17T16:26:24.534Z,99814.75
2023-04-17T16:29:28.293Z,99819.14
2023-04-17T16:32:32.270Z,99819.70
2023-04-17T16:35:37.144Z,99822.40
2023-04-17T16:38:41.884Z,99824.98
2023-04-17T16:41:48.883Z,99823.16
2023-04-17T16:44:58.102Z,99824.48
2023-04-17T16:48:01.541Z,99828.36
2023-04-17T16:51:07.351Z,99828.58
2023-04-17T16:54:12.887Z,99827.59
2023-04-17T16:57:18.761Z,99826.40
2023-04-17T17:00:23.412Z,99825.95
2023-04-17T17:03:28.461Z,99826.55
2023-04-17T17:06:33.483Z,99828.39
2023-04-17T17:09:37.883Z,99830.30
2023-04-17T17:12:41.489Z,99829.47
2023-04-17T17:15:47.757Z,99827.61
2023-04-17T17:18:51.874Z,99830.15
2023-04-17T17:21:56.089Z,99828.90
2023-04-17T17:25:03.180Z,99828.52
2023-04-17T17:28:07.512Z,99833.21
2023-04-17T17:31:19.959Z,99835.80
2023-04-17T17:34:27.103Z,99836.67
2023-04-17T17:37:31.604Z,99834.08
2023-04-17T17:40:37.104Z,99836.89
2023-04-17T17:43:41.084Z,99838.07
2023-04-17T17:46:46.034Z,99839.33
2023-04-17T17:49:53.806Z,99839.66
2023-04-17T17:53:02.088Z,99843.17
2023-04-17T17:56:08.426Z,99835.30
2023-04-17T17:59:13.541Z,99835.02
2023-04-17T18:05:06.142Z,99835.52
2023-04-17T18:08:08.600Z,99835.84
2023-04-17T18:11:12.636Z,99834.31
2023-04-17T18:14:15.257Z,99834.42
2023-04-17T18:17:20.335Z,99832.06
2023-04-17T18:20:23.954Z,99828.30
2023-04-17T18:23:26.095Z,99832.58
2023-04-17T18:26:30.327Z,99827.42
2023-04-17T18:29:33.094Z,99823.85
2023-04-17T18:32:35.515Z,99824.99
2023-04-17T18:35:37.546Z,99824.66
2023-04-17T18:38:39.576Z,99823.23
2023-04-17T18:41:43.625Z,99823.95
2023-04-17T18:44:45.905Z,99820.25
2023-04-17T19:01:18.372Z,99808.21
2023-04-17T19:04:22.031Z,99807.90
2023-04-17T19:07:27.842Z,99801.98
2023-04-17T19:10:31.220Z,99803.34
2023-04-17T19:13:34.638Z,99797.66
2023-04-17T19:16:38.156Z,99796.55
2023-04-17T19:19:41.586Z,99797.92
2023-04-17T19:22:44.816Z,99794.89
2023-04-17T19:25:55.355Z,99793.72
2023-04-17T19:28:59.309Z,99796.87
2023-04-17T19:32:02.952Z,99790.41
2023-04-17T19:35:09.780Z,99790.45
2023-04-17T19:38:14.919Z,99779.83
2023-04-17T19:41:22.713Z,99780.08
2023-04-17T19:44:28.043Z,99783.73
2023-04-17T19:47:31.468Z,99782.28
2023-04-17T19:50:35.076Z,99781.73
2023-04-17T19:53:41.753Z,99779.94
2023-04-17T19:56:45.043Z,99778.59
2023-04-17T19:59:48.346Z,99779.98
2023-04-17T20:02:51.849Z,99774.27
2023-04-17T20:05:57.582Z,99776.95
2023-04-17T20:09:03.255Z,99775.05
2023-04-17T20:12:07.235Z,99770.21
2023-04-17T20:15:11.413Z,99766.81
2023-04-17T20:18:17.964Z,99766.77
2023-04-17T20:21:21.746Z,99765.00
2023-04-17T20:24:26.899Z,99758.55
2023-04-17T20:27:30.198Z,99757.73
2023-04-17T20:30:33.744Z,99754.37
2023-04-17T20:33:37.309Z,99746.08
2023-04-17T20:36:40.909Z,99745.71
2023-04-17T20:39:44.412Z,99746.09
2023-04-17T20:42:49.508Z,99744.43
2023-04-17T20:45:53.087Z,99737.01
2023-04-17T20:48:57.996Z,99738.79
2023-04-17T20:52:03.338Z,99734.52
2023-04-17T20:55:08.699Z,99735.93
2023-04-17T20:58:12.340Z,99733.09
2023-04-17T21:01:17.954Z,99733.73
2023-04-17T21:04:22.156Z,99733.98
2023-04-17T21:07:26.004Z,99734.09
2023-04-17T21:10:29.466Z,99731.24
2023-04-17T21:27:05.105Z,99715.61
2023-04-17T21:30:10.992Z,99712.56
2023-04-17T21:33:14.725Z,99715.11
2023-04-17T21:36:19.808Z,99712.77
2023-04-17T21:39:23.308Z,99714.12
2023-04-17T21:42:26.811Z,99714.23
2023-04-17T21:45:32.190Z,99714.80
2023-04-17T21:48:35.610Z,99713.66
2023-04-17T21:51:38.859Z,99710.48
2023-04-17T21:54:42.688Z,99708.61
2023-04-17T21:57:45.812Z,99708.17
2023-04-17T22:04:43.482Z,99700.94
2023-04-17T22:07:54.172Z,99698.79
2023-04-17T22:10:58.860Z,99700.77
2023-04-17T22:14:04.914Z,99700.55
2023-04-17T22:17:08.415Z,99695.88
2023-04-17T22:20:12.737Z,99695.62
2023-04-17T22:23:16.960Z,99689.67
2023-04-17T22:26:21.522Z,99689.05
2023-04-17T22:29:26.314Z,99686.59
2023-04-17T22:32:29.835Z,99690.96
2023-04-17T22:35:33.114Z,99688.48
2023-04-17T22:38:36.615Z,99688.29
2023-04-17T22:41:40.213Z,99683.79
2023-04-17T22:44:43.521Z,99682.67
2023-04-17T22:47:47.140Z,99679.23
2023-04-17T22:50:50.687Z,99677.98
2023-04-17T22:53:56.067Z,99677.80
2023-04-17T22:56:59.685Z,99674.84
2023-04-17T23:00:04.098Z,99670.77
2023-04-17T23:03:08.272Z,99668.67
2023-04-17T23:06:11.807Z,99670.27
2023-04-17T23:09:16.187Z,99667.75
2023-04-17T23:12:21.192Z,99668.42
2023-04-17T23:15:24.562Z,99664.52
2023-04-17T23:18:27.808Z,99667.30
2023-04-17T23:21:31.671Z,99662.45
2023-04-17T23:24:35.074Z,99669.23
2023-04-17T23:27:38.469Z,99664.61
2023-04-17T23:30:41.785Z,99659.27
2023-04-17T23:33:44.978Z,99660.63
2023-04-17T23:36:48.160Z,99658.33
2023-04-17T23:39:51.458Z,99660.27
2023-04-17T23:42:55.120Z,99654.91
2023-04-17T23:46:00.738Z,99655.20
2023-04-17T23:49:04.039Z,99657.05
2023-04-17T23:52:08.347Z,99653.10
2023-04-17T23:55:12.243Z,99653.04
2023-04-17T23:58:16.664Z,99651.92
